Time;durP1;ratioP1;P1;durP2;ratioP2;P2;SDS_P1;SDS_P2;PMS_P1;PMS_P2;Temp;Humidity;BMP_temperature;BMP_pressure;BME280_temperature;BME280_humidity;BME280_pressure;Samples;Min_cycle;Max_cycle;Signal;HPM_P1;HPM_P2
2022/07/21 00:02:20;;;;;;;1.95;1.27;;;12.60;99.90;;;;;;4950167;28;20035;-79
2022/07/21 00:04:49;;;;;;;2.85;1.58;;;12.70;99.90;;;;;;4954916;28;20098;-78
2022/07/21 00:07:16;;;;;;;2.17;1.42;;;12.80;99.90;;;;;;4952258;28;20078;-77
2022/07/21 00:09:44;;;;;;;2.47;1.05;;;12.90;99.90;;;;;;4953717;28;20126;-74
2022/07/21 00:12:11;;;;;;;3.50;1.70;;;13.00;99.90;;;;;;4950671;28;20082;-74
2022/07/21 00:14:39;;;;;;;1.73;1.02;;;13.20;99.90;;;;;;4943418;28;20062;-71
2022/07/21 00:17:06;;;;;;;4.45;1.80;;;13.40;99.90;;;;;;4939234;28;20386;-78
2022/07/21 00:19:33;;;;;;;3.40;1.52;;;13.50;99.90;;;;;;4952091;29;20050;-72
2022/07/21 00:22:01;;;;;;;2.08;1.35;;;13.60;99.90;;;;;;4948918;29;20102;-80
2022/07/21 00:24:28;;;;;;;2.25;0.70;;;13.70;99.90;;;;;;4942319;29;20047;-76
2022/07/21 00:26:55;;;;;;;3.80;1.23;;;13.80;99.90;;;;;;4940762;29;20058;-75
2022/07/21 00:29:23;;;;;;;2.70;0.55;;;13.90;99.90;;;;;;4941341;29;20042;-75
2022/07/21 00:31:50;;;;;;;2.75;0.60;;;14.10;99.90;;;;;;4938207;29;20024;-76
2022/07/21 00:34:18;;;;;;;1.88;1.08;;;14.40;99.90;;;;;;4940517;28;20103;-76
2022/07/21 00:36:45;;;;;;;4.32;1.00;;;14.70;99.90;;;;;;4943831;29;20462;-79
2022/07/21 00:39:12;;;;;;;1.67;0.60;;;15.20;99.90;;;;;;4949618;28;20035;-75
2022/07/21 00:41:40;;;;;;;3.03;0.70;;;15.70;99.90;;;;;;4937907;29;20023;-78
2022/07/21 00:44:19;;;;;;;1.42;0.95;;;16.00;99.90;;;;;;4952667;28;20569;-74
2022/07/21 00:46:46;;;;;;;4.03;0.60;;;16.20;99.90;;;;;;4949258;28;20486;-75
2022/07/21 00:49:13;;;;;;;1.60;0.47;;;16.40;99.90;;;;;;4948678;28;20103;-77
2022/07/21 00:51:41;;;;;;;1.42;0.47;;;16.30;99.90;;;;;;4948557;28;20502;-78
2022/07/21 00:54:09;;;;;;;2.70;0.43;;;16.80;99.90;;;;;;4953176;29;20039;-75
2022/07/21 00:56:36;;;;;;;1.48;0.40;;;17.30;99.90;;;;;;4951545;28;20149;-74
2022/07/21 00:59:04;;;;;;;0.60;0.25;;;17.40;99.90;;;;;;4946900;28;20058;-78
2022/07/21 01:01:31;;;;;;;0.75;0.43;;;17.30;99.90;;;;;;4946939;28;20034;-77
2022/07/21 01:03:59;;;;;;;1.52;0.77;;;17.40;99.90;;;;;;4953328;29;20027;-76
2022/07/21 01:06:26;;;;;;;3.22;0.47;;;17.50;99.90;;;;;;4951519;29;20038;-77
2022/07/21 01:08:54;;;;;;;3.25;0.60;;;17.10;99.90;;;;;;4945205;29;20078;-76
2022/07/21 01:11:24;;;;;;;3.03;0.60;;;16.90;99.90;;;;;;4939098;28;20062;-75
2022/07/21 01:13:54;;;;;;;1.63;0.80;;;16.90;99.90;;;;;;4947875;28;20446;-78
2022/07/21 01:16:22;;;;;;;2.20;0.60;;;16.90;99.90;;;;;;4948176;28;20121;-77
2022/07/21 01:18:50;;;;;;;3.47;0.50;;;16.60;99.90;;;;;;4949628;28;20027;-78
2022/07/21 01:21:30;;;;;;;3.50;0.35;;;16.30;99.90;;;;;;4940353;28;20042;-83
2022/07/21 01:23:58;;;;;;;2.25;0.32;;;15.90;99.90;;;;;;4951856;29;20027;-79
2022/07/21 01:26:26;;;;;;;1.20;0.77;;;15.70;99.90;;;;;;4938877;28;20035;-81
2022/07/21 01:28:54;;;;;;;2.30;0.63;;;15.50;99.90;;;;;;4943793;28;20148;-81
2022/07/21 01:31:22;;;;;;;1.55;0.43;;;15.30;99.90;;;;;;4947112;28;20035;-82
2022/07/21 01:33:50;;;;;;;1.50;0.55;;;15.20;99.90;;;;;;4950888;29;20419;-82
2022/07/21 01:36:18;;;;;;;1.85;0.55;;;15.10;99.90;;;;;;4949471;28;20023;-77
2022/07/21 01:41:32;;;;;;;1.37;0.50;;;15.10;99.90;;;;;;4949557;28;20026;-75
2022/07/21 01:44:03;;;;;;;1.48;0.68;;;15.10;99.90;;;;;;4952220;28;20513;-78
2022/07/21 01:46:38;;;;;;;3.00;0.68;;;15.10;99.90;;;;;;4940003;28;20019;-78
2022/07/21 01:49:06;;;;;;;1.10;0.60;;;15.10;99.90;;;;;;4948658;29;20046;-80
2022/07/21 01:51:34;;;;;;;2.67;0.57;;;15.10;99.90;;;;;;4940495;29;20036;-73
2022/07/21 01:54:02;;;;;;;1.55;0.73;;;15.10;99.90;;;;;;4947601;29;20074;-82
2022/07/21 01:56:30;;;;;;;8.13;4.20;;;15.10;99.90;;;;;;4944192;29;20102;-79
2022/07/21 01:58:58;;;;;;;3.42;1.38;;;15.60;99.90;;;;;;4945126;28;20584;-80
2022/07/21 02:01:28;;;;;;;13.07;4.90;;;15.80;99.90;;;;;;4940776;28;20031;-84
2022/07/21 02:03:59;;;;;;;8.63;1.80;;;16.10;99.90;;;;;;4951819;28;20035;-79
2022/07/21 02:06:27;;;;;;;2.15;0.95;;;16.20;99.90;;;;;;4946412;28;20057;-81
2022/07/21 02:08:55;;;;;;;1.83;0.55;;;16.20;99.90;;;;;;4950669;28;20039;-77
2022/07/21 02:11:23;;;;;;;6.03;4.65;;;16.10;99.90;;;;;;4946773;29;20467;-77
2022/07/21 02:13:50;;;;;;;6.13;3.28;;;16.00;99.90;;;;;;4940040;28;20081;-80
2022/07/21 02:16:17;;;;;;;5.75;2.15;;;15.90;99.90;;;;;;4948453;29;20363;-75
2022/07/21 02:18:45;;;;;;;4.65;0.70;;;15.70;99.90;;;;;;4941120;28;20518;-76
2022/07/21 02:21:13;;;;;;;6.97;1.02;;;15.50;99.90;;;;;;4940838;29;20050;-73
2022/07/21 02:23:40;;;;;;;3.03;0.77;;;15.30;99.90;;;;;;4944179;28;20114;-77
2022/07/21 02:26:08;;;;;;;3.58;0.90;;;15.00;99.90;;;;;;4943371;29;20039;-83
2022/07/21 02:28:35;;;;;;;4.80;0.80;;;14.80;99.90;;;;;;4953854;29;20031;-84
2022/07/21 02:31:03;;;;;;;2.20;0.70;;;14.70;99.90;;;;;;4950521;29;20035;-81
2022/07/21 02:33:30;;;;;;;3.67;0.75;;;14.60;99.90;;;;;;4938426;29;20039;-81
2022/07/21 02:35:58;;;;;;;4.88;2.72;;;14.50;99.90;;;;;;4946969;28;20023;-79
2022/07/21 02:38:25;;;;;;;11.32;6.57;;;14.60;99.90;;;;;;4951344;29;20149;-78
2022/07/21 02:40:53;;;;;;;6.75;1.35;;;14.70;99.90;;;;;;4953134;28;20933;-80
2022/07/21 02:43:20;;;;;;;6.20;1.45;;;14.70;99.90;;;;;;4949450;28;20027;-77
2022/07/21 02:45:48;;;;;;;3.35;0.88;;;14.80;99.90;;;;;;4956897;29;20034;-79
2022/07/21 02:48:15;;;;;;;4.57;1.33;;;14.90;99.90;;;;;;4953238;28;21594;-83
2022/07/21 02:50:44;;;;;;;2.65;1.63;;;15.10;99.90;;;;;;4947497;28;20031;-77
2022/07/21 02:53:19;;;;;;;7.55;1.77;;;15.60;99.90;;;;;;4949795;28;20038;-79
2022/07/21 02:55:54;;;;;;;2.65;1.23;;;16.10;99.90;;;;;;4952154;28;20418;-79
2022/07/21 02:58:27;;;;;;;6.07;1.33;;;16.80;99.90;;;;;;4952064;28;20051;-87
2022/07/21 03:01:04;;;;;;;2.90;1.20;;;17.10;99.90;;;;;;4946950;28;20043;-78
2022/07/21 03:03:34;;;;;;;2.08;1.27;;;17.40;99.90;;;;;;4952411;28;20068;-82
2022/07/21 03:06:02;;;;;;;2.10;1.20;;;17.70;99.90;;;;;;4940736;28;20035;-82
2022/07/21 03:08:30;;;;;;;3.13;1.63;;;18.60;99.90;;;;;;4943569;29;20687;-75
2022/07/21 03:10:58;;;;;;;9.68;2.15;;;19.00;99.90;;;;;;4947019;29;20040;-77
2022/07/21 03:13:25;;;;;;;5.85;1.40;;;19.00;99.90;;;;;;4949304;28;20036;-75
2022/07/21 03:15:53;;;;;;;3.95;0.85;;;19.10;99.90;;;;;;4945565;29;20038;-74
2022/07/21 03:18:21;;;;;;;4.15;1.10;;;19.10;99.90;;;;;;4948166;29;20086;-81
2022/07/21 03:20:48;;;;;;;8.30;1.98;;;18.60;99.90;;;;;;4949950;29;20111;-73
2022/07/21 03:23:16;;;;;;;4.00;0.75;;;18.20;99.90;;;;;;4940424;29;20024;-74
2022/07/21 03:25:43;;;;;;;4.18;1.00;;;17.60;99.90;;;;;;4945157;29;20366;-81
2022/07/21 03:28:11;;;;;;;3.90;0.70;;;17.10;99.90;;;;;;4943885;29;20106;-77
2022/07/21 03:30:38;;;;;;;1.67;0.88;;;16.70;99.90;;;;;;4942800;29;20027;-78
2022/07/21 03:33:06;;;;;;;4.05;0.82;;;16.60;99.90;;;;;;4945431;28;20406;-79
2022/07/21 03:35:35;;;;;;;1.67;0.55;;;16.40;99.90;;;;;;4954549;28;20651;-84
2022/07/21 03:38:04;;;;;;;3.05;0.50;;;16.30;99.90;;;;;;4957384;28;20182;-85
2022/07/21 03:40:34;;;;;;;1.40;0.45;;;16.40;99.90;;;;;;4950955;28;20043;-81
2022/07/21 03:43:03;;;;;;;2.30;0.30;;;16.60;99.90;;;;;;4950337;28;20042;-73
2022/07/21 03:45:32;;;;;;;1.77;1.15;;;16.70;99.90;;;;;;4943968;28;20054;-75
2022/07/21 03:48:03;;;;;;;2.50;0.43;;;16.60;99.90;;;;;;4945105;29;20024;-78
2022/07/21 03:50:32;;;;;;;1.15;0.40;;;16.50;99.90;;;;;;4948712;28;20042;-87
2022/07/21 03:53:00;;;;;;;1.73;0.88;;;16.50;99.90;;;;;;4934620;29;20035;-82
2022/07/21 03:55:28;;;;;;;1.30;0.50;;;16.40;99.90;;;;;;4948521;29;20031;-76
2022/07/21 03:57:58;;;;;;;2.75;0.57;;;16.40;99.90;;;;;;4951279;28;20031;-76
2022/07/21 04:00:32;;;;;;;1.00;0.40;;;16.40;99.90;;;;;;4951763;29;20043;-81
2022/07/21 04:03:01;;;;;;;1.75;0.20;;;16.40;99.90;;;;;;4954447;29;20035;-82
2022/07/21 04:05:29;;;;;;;1.85;0.63;;;16.30;99.90;;;;;;4950288;29;20031;-79
2022/07/21 04:07:57;;;;;;;0.45;0.10;;;16.10;99.90;;;;;;4952814;29;20034;-77
2022/07/21 04:10:27;;;;;;;1.98;0.30;;;16.00;99.90;;;;;;4951823;29;20073;-80
2022/07/21 04:12:56;;;;;;;2.55;0.40;;;15.80;99.90;;;;;;4953431;29;20031;-82
2022/07/21 04:15:24;;;;;;;1.10;0.30;;;15.70;99.90;;;;;;4951603;28;20026;-79
2022/07/21 04:17:52;;;;;;;0.43;0.20;;;15.60;99.90;;;;;;4950326;28;20046;-80
2022/07/21 04:20:20;;;;;;;1.52;0.30;;;15.50;99.90;;;;;;4949494;29;20039;-78
2022/07/21 04:22:50;;;;;;;0.75;0.30;;;15.30;99.90;;;;;;4940684;29;20273;-77
2022/07/21 04:25:19;;;;;;;0.50;0.20;;;15.20;99.90;;;;;;4952718;29;20027;-78
2022/07/21 04:27:48;;;;;;;1.13;0.73;;;15.00;99.90;;;;;;4949085;29;20063;-77
2022/07/21 04:30:18;;;;;;;0.52;0.20;;;14.80;99.90;;;;;;4952678;28;20211;-75
2022/07/21 04:32:46;;;;;;;5.10;0.50;;;14.80;99.90;;;;;;4951553;29;20035;-79
2022/07/21 04:35:14;;;;;;;1.92;0.82;;;14.70;99.90;;;;;;4951254;29;20122;-80
2022/07/21 04:37:42;;;;;;;4.28;0.30;;;14.60;99.90;;;;;;4941361;28;20031;-82
2022/07/21 04:40:11;;;;;;;1.65;0.32;;;14.70;99.90;;;;;;4952937;29;20039;-79
2022/07/21 04:42:38;;;;;;;2.00;0.35;;;14.60;99.90;;;;;;4945129;28;20023;-78
2022/07/21 04:45:07;;;;;;;1.90;0.40;;;14.50;99.90;;;;;;4954763;28;20031;-77
2022/07/21 04:47:53;;;;;;;1.73;0.20;;;14.50;99.90;;;;;;4945390;28;20035;-81
2022/07/21 04:50:22;;;;;;;0.43;0.20;;;14.30;99.90;;;;;;4948536;29;20095;-77
2022/07/21 04:52:50;;;;;;;5.47;0.40;;;14.10;99.90;;;;;;4942282;28;20027;-87
2022/07/21 04:55:19;;;;;;;1.75;0.28;;;14.00;99.90;;;;;;4942180;29;20043;-77
2022/07/21 04:57:50;;;;;;;1.48;0.30;;;13.90;99.90;;;;;;4945167;28;20031;-80
2022/07/21 05:00:20;;;;;;;0.75;0.30;;;13.90;99.90;;;;;;4952255;29;20124;-84
2022/07/21 05:02:48;;;;;;;1.92;0.30;;;13.90;99.90;;;;;;4943303;28;20143;-86
2022/07/21 05:05:16;;;;;;;3.50;0.40;;;14.00;99.90;;;;;;4947060;29;20478;-82
2022/07/21 05:07:44;;;;;;;2.38;0.40;;;14.10;99.90;;;;;;4939011;29;20027;-79
2022/07/21 05:10:16;;;;;;;4.70;0.30;;;14.20;99.90;;;;;;4952434;28;20035;-79
2022/07/21 05:12:43;;;;;;;2.30;0.30;;;14.20;99.90;;;;;;4950836;29;20031;-77
2022/07/21 05:15:12;;;;;;;2.30;0.30;;;14.20;99.90;;;;;;4950760;28;20612;-81
2022/07/21 05:17:41;;;;;;;1.40;0.22;;;14.10;99.90;;;;;;4942902;28;20397;-81
2022/07/21 05:20:10;;;;;;;1.27;0.30;;;14.20;99.90;;;;;;4936203;29;20615;-81
2022/07/21 05:22:38;;;;;;;1.00;0.35;;;14.10;99.90;;;;;;4938573;29;20039;-78
2022/07/21 05:25:06;;;;;;;5.50;0.85;;;14.20;99.90;;;;;;4941884;28;20494;-76
2022/07/21 05:27:34;;;;;;;2.72;1.20;;;14.10;99.90;;;;;;4937737;29;20036;-79
2022/07/21 05:30:03;;;;;;;4.50;1.40;;;14.10;99.90;;;;;;4950669;29;20038;-82
2022/07/21 05:32:30;;;;;;;4.38;0.40;;;14.20;99.90;;;;;;4952515;29;20028;-78
2022/07/21 05:34:57;;;;;;;8.32;0.52;;;14.20;99.90;;;;;;4945255;28;20054;-78
2022/07/21 05:37:27;;;;;;;5.03;1.58;;;14.20;99.90;;;;;;4941210;29;20054;-77
2022/07/21 05:39:54;;;;;;;0.68;0.30;;;14.20;99.90;;;;;;4941772;29;20047;-77
2022/07/21 05:42:22;;;;;;;4.80;0.47;;;14.10;99.90;;;;;;4944077;29;20031;-77
2022/07/21 05:44:49;;;;;;;2.20;1.23;;;14.10;99.90;;;;;;4947440;29;20041;-79
2022/07/21 05:47:16;;;;;;;5.93;1.33;;;14.10;99.90;;;;;;4942009;28;20119;-84
2022/07/21 05:49:44;;;;;;;3.60;0.82;;;14.10;99.90;;;;;;4941920;28;20075;-82
2022/07/21 05:52:11;;;;;;;1.67;0.43;;;14.10;99.90;;;;;;4943272;28;20038;-81
2022/07/21 05:54:39;;;;;;;2.58;0.40;;;14.10;99.90;;;;;;4940296;29;20039;-82
2022/07/21 05:57:06;;;;;;;3.50;0.47;;;14.10;99.90;;;;;;4940388;29;20395;-81
2022/07/21 05:59:33;;;;;;;3.40;1.13;;;14.10;99.90;;;;;;4938480;29;20688;-80
2022/07/21 06:02:01;;;;;;;2.58;0.50;;;14.20;99.90;;;;;;4940957;28;20032;-82
2022/07/21 06:04:28;;;;;;;5.13;0.82;;;14.10;99.90;;;;;;4945464;28;20035;-78
2022/07/21 06:06:56;;;;;;;5.05;1.08;;;14.20;99.90;;;;;;4941179;29;20114;-82
2022/07/21 06:09:23;;;;;;;5.90;1.05;;;14.20;99.90;;;;;;4941112;29;20031;-80
2022/07/21 06:11:52;;;;;;;4.25;0.70;;;14.10;99.90;;;;;;4939609;29;20323;-81
2022/07/21 06:14:19;;;;;;;3.40;1.10;;;14.10;99.90;;;;;;4944025;29;20042;-81
2022/07/21 06:16:47;;;;;;;6.53;3.67;;;14.10;99.90;;;;;;4948571;29;20181;-82
2022/07/21 06:19:14;;;;;;;11.23;3.55;;;14.10;99.90;;;;;;4949830;28;20126;-77
2022/07/21 06:21:41;;;;;;;5.40;2.38;;;14.10;99.90;;;;;;4948698;28;20054;-79
2022/07/21 06:24:09;;;;;;;5.03;2.10;;;14.00;99.90;;;;;;4939274;28;20031;-78
2022/07/21 06:26:38;;;;;;;7.18;1.85;;;14.00;99.90;;;;;;4945021;29;20024;-80
2022/07/21 06:29:06;;;;;;;5.82;1.10;;;14.00;99.90;;;;;;4950452;29;20046;-80
2022/07/21 06:31:34;;;;;;;4.72;2.15;;;14.00;99.90;;;;;;4943701;28;20453;-79
2022/07/21 06:34:02;;;;;;;7.45;1.10;;;14.00;99.90;;;;;;4936574;29;20055;-80
2022/07/21 06:36:29;;;;;;;3.28;1.17;;;14.00;99.90;;;;;;4950030;28;20023;-80
2022/07/21 06:38:57;;;;;;;8.63;2.20;;;13.90;99.90;;;;;;4950398;28;20138;-78
2022/07/21 06:41:24;;;;;;;6.13;3.08;;;13.90;99.90;;;;;;4946721;28;20035;-79
2022/07/21 06:43:51;;;;;;;6.03;3.05;;;13.90;99.90;;;;;;4941061;29;20459;-80
2022/07/21 06:46:19;;;;;;;7.18;3.53;;;13.90;99.90;;;;;;4927835;29;20031;-80
2022/07/21 06:48:46;;;;;;;9.48;4.68;;;13.90;99.90;;;;;;4944632;29;20122;-84
2022/07/21 06:51:14;;;;;;;9.27;5.05;;;13.80;99.90;;;;;;4949796;29;20038;-79
2022/07/21 06:53:42;;;;;;;6.82;2.92;;;13.80;99.90;;;;;;4950521;29;20127;-81
2022/07/21 06:56:10;;;;;;;4.00;1.90;;;13.80;99.90;;;;;;4950325;29;20035;-81
2022/07/21 06:58:38;;;;;;;2.83;1.55;;;13.80;99.90;;;;;;4944117;29;20027;-86
2022/07/21 07:01:06;;;;;;;2.03;0.85;;;13.70;99.90;;;;;;4939116;29;20050;-84
2022/07/21 07:03:33;;;;;;;1.48;0.90;;;13.70;99.90;;;;;;4939476;29;20033;-85
2022/07/21 07:06:01;;;;;;;5.13;1.58;;;13.70;99.90;;;;;;4941694;29;20035;-79
2022/07/21 07:08:28;;;;;;;4.63;0.98;;;13.70;99.90;;;;;;4939675;28;20111;-82
2022/07/21 07:10:55;;;;;;;3.17;0.85;;;13.70;99.90;;;;;;4943673;29;20034;-81
2022/07/21 07:13:23;;;;;;;3.40;0.90;;;13.70;99.90;;;;;;4939955;29;20045;-84
2022/07/21 07:15:50;;;;;;;4.55;1.23;;;13.60;99.90;;;;;;4941488;29;20512;-82
2022/07/21 07:18:20;;;;;;;2.50;1.65;;;13.60;99.90;;;;;;4936842;29;20715;-78
2022/07/21 07:20:47;;;;;;;3.05;0.93;;;13.50;99.90;;;;;;4940992;29;20047;-80
2022/07/21 07:23:15;;;;;;;4.68;0.80;;;13.50;99.90;;;;;;4942781;29;20027;-78
2022/07/21 07:25:42;;;;;;;2.70;0.90;;;13.50;99.90;;;;;;4943852;28;20458;-79
2022/07/21 07:28:10;;;;;;;2.22;1.17;;;13.50;99.90;;;;;;4947773;29;20461;-80
2022/07/21 07:30:38;;;;;;;6.18;2.13;;;13.40;99.90;;;;;;4945652;28;20035;-75
2022/07/21 07:33:06;;;;;;;2.25;1.17;;;13.40;99.90;;;;;;4937773;29;20047;-80
2022/07/21 07:35:34;;;;;;;5.57;2.20;;;13.40;99.90;;;;;;4936029;28;20047;-78
2022/07/21 07:38:01;;;;;;;4.93;1.70;;;13.40;99.90;;;;;;4945209;29;20066;-76
2022/07/21 07:40:29;;;;;;;4.20;1.90;;;13.40;99.90;;;;;;4948569;29;20039;-77
2022/07/21 07:42:57;;;;;;;8.10;2.67;;;13.40;99.90;;;;;;4946724;28;20027;-75
2022/07/21 07:45:24;;;;;;;6.63;2.00;;;13.40;99.90;;;;;;4947409;28;20071;-82
2022/07/21 07:47:52;;;;;;;8.85;2.15;;;13.40;99.90;;;;;;4944154;28;20031;-78
2022/07/21 07:50:19;;;;;;;6.53;1.77;;;13.40;99.90;;;;;;4946607;29;20486;-75
2022/07/21 07:52:47;;;;;;;6.85;2.30;;;13.40;99.90;;;;;;4944815;29;20028;-75
2022/07/21 07:55:14;;;;;;;6.25;2.30;;;13.40;99.90;;;;;;4951123;29;20027;-75
2022/07/21 07:57:43;;;;;;;3.63;1.25;;;13.40;99.90;;;;;;4947086;29;20043;-81
2022/07/21 08:00:15;;;;;;;4.65;1.27;;;13.40;99.90;;;;;;4960142;28;20134;-79
2022/07/21 08:02:42;;;;;;;5.25;2.42;;;13.40;99.90;;;;;;4959300;29;20031;-81
2022/07/21 08:05:10;;;;;;;8.95;3.17;;;13.30;99.90;;;;;;4962914;29;20023;-76
2022/07/21 08:07:39;;;;;;;5.93;2.45;;;13.30;99.90;;;;;;4950508;29;20063;-78
2022/07/21 08:10:08;;;;;;;5.80;2.70;;;13.30;99.90;;;;;;4954859;28;20035;-79
2022/07/21 08:12:36;;;;;;;3.63;1.92;;;13.30;99.90;;;;;;4949109;28;20113;-80
2022/07/21 08:15:05;;;;;;;4.13;1.63;;;13.20;99.90;;;;;;4954007;28;20035;-76
2022/07/21 08:17:33;;;;;;;4.72;2.72;;;13.20;99.90;;;;;;4950632;28;20034;-79
2022/07/21 08:20:00;;;;;;;6.53;3.03;;;13.20;99.90;;;;;;4938205;29;20039;-75
2022/07/21 08:22:28;;;;;;;9.02;5.00;;;13.20;99.90;;;;;;4936961;29;20038;-77
2022/07/21 08:24:55;;;;;;;10.15;6.63;;;13.20;99.90;;;;;;4942974;28;20566;-77
2022/07/21 08:27:22;;;;;;;13.18;6.40;;;13.10;99.90;;;;;;4927460;28;20398;-79
2022/07/21 08:29:50;;;;;;;7.03;4.97;;;13.10;99.90;;;;;;4947182;29;20098;-78
2022/07/21 08:32:18;;;;;;;8.15;3.47;;;13.10;99.90;;;;;;4947923;28;20015;-76
2022/07/21 08:34:46;;;;;;;9.02;3.42;;;13.10;99.90;;;;;;4952380;29;20051;-79
2022/07/21 08:37:14;;;;;;;14.00;4.47;;;13.10;99.90;;;;;;4946497;28;20502;-77
2022/07/21 08:39:42;;;;;;;5.72;3.28;;;13.10;99.90;;;;;;4950314;29;20073;-77
2022/07/21 08:42:11;;;;;;;11.00;6.65;;;13.10;99.90;;;;;;4951734;29;20118;-74
2022/07/21 08:44:38;;;;;;;7.90;4.40;;;13.10;99.90;;;;;;4953499;28;20038;-75
2022/07/21 08:47:06;;;;;;;5.13;3.60;;;13.10;99.90;;;;;;4950665;29;20035;-77
2022/07/21 08:49:38;;;;;;;7.18;2.78;;;13.10;99.90;;;;;;4952197;29;20043;-75
2022/07/21 08:52:07;;;;;;;3.85;1.63;;;13.10;99.90;;;;;;4952740;29;20066;-75
2022/07/21 08:54:35;;;;;;;5.88;2.40;;;13.00;99.90;;;;;;4952589;29;20166;-76
2022/07/21 08:57:02;;;;;;;5.55;3.85;;;13.00;99.90;;;;;;4951689;29;20394;-76
2022/07/21 08:59:32;;;;;;;2.90;2.05;;;13.00;99.90;;;;;;4953480;28;20138;-75
2022/07/21 09:02:00;;;;;;;4.47;2.78;;;13.00;99.90;;;;;;4944513;29;20042;-74
2022/07/21 09:04:34;;;;;;;3.97;1.98;;;13.00;99.90;;;;;;4946764;29;20035;-74
2022/07/21 09:07:07;;;;;;;4.75;2.22;;;12.90;99.90;;;;;;4950323;29;20107;-77
2022/07/21 09:09:35;;;;;;;6.65;2.10;;;13.00;99.90;;;;;;4953690;29;20054;-77
2022/07/21 09:12:04;;;;;;;7.60;2.45;;;13.00;99.90;;;;;;4948255;28;20442;-77
2022/07/21 09:14:33;;;;;;;5.40;2.40;;;12.90;99.90;;;;;;4950697;28;20042;-75
2022/07/21 09:17:06;;;;;;;5.18;1.70;;;12.90;99.90;;;;;;4933303;29;20158;-77
2022/07/21 09:19:35;;;;;;;5.60;2.30;;;12.80;99.90;;;;;;4952520;29;20074;-74
2022/07/21 09:22:06;;;;;;;8.10;2.85;;;12.80;99.90;;;;;;4944952;29;20082;-77
2022/07/21 09:24:43;;;;;;;8.48;3.08;;;12.70;99.90;;;;;;4941978;29;20114;-74
2022/07/21 09:27:22;;;;;;;6.25;2.30;;;12.70;99.90;;;;;;4948047;29;20424;-76
2022/07/21 09:29:52;;;;;;;5.60;2.40;;;12.70;99.90;;;;;;4953838;29;20054;-76
2022/07/21 09:32:31;;;;;;;6.80;2.08;;;12.70;99.90;;;;;;4947791;28;20020;-76
2022/07/21 09:35:14;;;;;;;6.72;3.28;;;12.70;99.90;;;;;;4949031;29;20467;-76
2022/07/21 09:37:43;;;;;;;11.30;5.93;;;12.70;99.90;;;;;;4947052;29;20387;-76
2022/07/21 09:40:14;;;;;;;16.10;7.38;;;12.70;99.90;;;;;;4951304;28;20039;-76
2022/07/21 09:42:44;;;;;;;13.45;8.45;;;12.60;99.90;;;;;;4941521;29;20035;-73
2022/07/21 09:45:16;;;;;;;23.65;17.13;;;12.70;99.90;;;;;;4948527;28;20031;-75
2022/07/21 09:47:45;;;;;;;19.45;13.70;;;12.70;99.90;;;;;;4947025;29;20087;-74
2022/07/21 09:50:15;;;;;;;9.40;7.32;;;12.70;99.90;;;;;;4948448;28;20114;-75
2022/07/21 09:52:44;;;;;;;8.43;3.60;;;12.70;99.90;;;;;;4943531;29;20027;-76
2022/07/21 09:55:16;;;;;;;8.25;2.38;;;12.70;99.90;;;;;;4944475;29;20041;-77
2022/07/21 09:57:45;;;;;;;4.03;2.63;;;12.70;99.90;;;;;;4945886;29;20158;-78
2022/07/21 10:00:16;;;;;;;6.35;3.00;;;12.70;99.90;;;;;;4944994;28;20102;-75
2022/07/21 10:02:45;;;;;;;7.75;3.58;;;12.60;99.90;;;;;;4936053;29;20033;-75
2022/07/21 10:05:18;;;;;;;5.40;3.20;;;12.70;99.90;;;;;;4951846;29;20039;-77
2022/07/21 10:07:47;;;;;;;6.72;3.38;;;12.70;99.90;;;;;;4948638;29;20406;-76
2022/07/21 10:10:16;;;;;;;11.82;2.90;;;12.70;99.90;;;;;;4943983;28;20612;-74
2022/07/21 10:12:46;;;;;;;10.35;3.38;;;12.70;99.90;;;;;;4943442;29;20042;-74
2022/07/21 10:15:13;;;;;;;8.43;3.88;;;12.70;99.90;;;;;;4947014;29;20478;-75
2022/07/21 10:17:41;;;;;;;5.30;4.20;;;12.70;99.90;;;;;;4943047;28;20047;-76
2022/07/21 10:20:30;;;;;;;7.15;4.97;;;12.70;99.90;;;;;;4943827;28;20611;-81
2022/07/21 10:23:22;;;;;;;8.98;6.45;;;12.70;99.90;;;;;;4945556;29;20347;-74
2022/07/21 10:25:50;;;;;;;13.02;5.18;;;12.60;99.90;;;;;;4946350;29;20027;-76
2022/07/21 10:28:25;;;;;;;11.38;5.28;;;12.60;99.90;;;;;;4945142;28;20614;-74
2022/07/21 10:30:57;;;;;;;8.00;4.47;;;12.60;99.90;;;;;;4940004;28;20047;-78
2022/07/21 10:33:50;;;;;;;9.25;3.38;;;12.60;99.90;;;;;;4951824;28;20051;-75
2022/07/21 10:36:33;;;;;;;4.53;2.70;;;12.50;99.90;;;;;;4942684;29;20075;-78
2022/07/21 10:39:10;;;;;;;11.35;6.32;;;12.50;99.90;;;;;;4947510;29;20142;-79
2022/07/21 10:41:42;;;;;;;13.07;5.82;;;12.50;99.90;;;;;;4949377;29;20035;-76
2022/07/21 10:44:32;;;;;;;8.07;6.57;;;12.50;99.90;;;;;;4934182;29;20031;-82
2022/07/21 10:47:05;;;;;;;9.85;7.90;;;12.40;99.90;;;;;;4945963;28;20027;-74
2022/07/21 10:49:49;;;;;;;13.15;7.95;;;12.40;99.90;;;;;;4949887;28;20028;-76
2022/07/21 10:52:45;;;;;;;12.77;6.82;;;12.40;99.90;;;;;;4946462;29;20029;-78
2022/07/21 10:55:37;;;;;;;13.87;7.40;;;12.30;99.90;;;;;;4944990;28;20044;-75
2022/07/21 10:58:16;;;;;;;8.90;6.05;;;12.20;99.90;;;;;;4960731;29;20036;-79
2022/07/21 11:01:14;;;;;;;11.82;6.78;;;12.10;99.90;;;;;;4956077;28;20043;-80
2022/07/21 11:03:52;;;;;;;16.05;6.72;;;12.10;99.90;;;;;;4946096;28;20043;-79
2022/07/21 11:06:25;;;;;;;7.28;5.28;;;12.00;99.90;;;;;;4932210;29;20026;-79
2022/07/21 11:09:05;;;;;;;13.25;6.00;;;12.00;99.90;;;;;;4943632;29;20031;-75
2022/07/21 11:11:40;;;;;;;15.43;5.10;;;12.00;99.90;;;;;;4942841;28;20036;-74
2022/07/21 11:14:30;;;;;;;10.90;5.95;;;11.90;99.90;;;;;;4950084;29;20027;-74
2022/07/21 11:17:02;;;;;;;9.55;5.63;;;11.90;99.90;;;;;;4941410;28;20046;-76
2022/07/21 11:19:40;;;;;;;10.35;5.20;;;11.90;99.90;;;;;;4944835;28;20109;-75
2022/07/21 11:22:22;;;;;;;7.05;4.28;;;11.90;99.90;;;;;;4948170;28;20027;-75
2022/07/21 11:24:51;;;;;;;11.20;5.28;;;11.90;99.90;;;;;;4949540;28;20042;-74
2022/07/21 11:27:24;;;;;;;6.57;4.65;;;12.00;99.90;;;;;;4949944;28;20549;-78
2022/07/21 11:29:58;;;;;;;7.70;4.35;;;12.00;99.90;;;;;;4944884;29;20555;-75
2022/07/21 11:32:26;;;;;;;10.27;4.35;;;12.00;99.90;;;;;;4944161;28;20481;-77
2022/07/21 11:34:56;;;;;;;8.23;3.92;;;12.00;99.90;;;;;;4950035;28;20848;-77
2022/07/21 11:37:37;;;;;;;9.60;4.07;;;11.90;99.90;;;;;;4944751;28;20031;-76
2022/07/21 11:40:13;;;;;;;7.90;5.10;;;11.90;99.90;;;;;;4943982;29;20051;-75
2022/07/21 11:42:42;;;;;;;9.43;5.07;;;11.80;99.90;;;;;;4939780;28;20043;-78
2022/07/21 11:45:11;;;;;;;12.93;5.20;;;11.80;99.90;;;;;;4944036;29;20482;-78
2022/07/21 11:47:38;;;;;;;11.85;4.38;;;11.70;99.90;;;;;;4941758;28;20094;-75
2022/07/21 11:50:12;;;;;;;8.38;4.38;;;11.60;99.90;;;;;;4949910;28;20046;-74
2022/07/21 11:52:41;;;;;;;4.85;3.47;;;11.60;99.90;;;;;;4951373;28;20031;-77
2022/07/21 11:55:12;;;;;;;8.25;2.55;;;11.50;99.90;;;;;;4952478;28;20718;-75
2022/07/21 11:57:44;;;;;;;5.35;2.13;;;11.50;99.90;;;;;;4951451;28;20063;-80
2022/07/21 12:00:13;;;;;;;7.53;1.92;;;11.40;99.90;;;;;;4950478;28;20098;-76
2022/07/21 12:02:41;;;;;;;8.00;2.10;;;11.40;99.90;;;;;;4950324;28;20138;-78
2022/07/21 12:05:09;;;;;;;7.53;2.20;;;11.40;99.90;;;;;;4951738;28;20031;-76
2022/07/21 12:07:40;;;;;;;6.95;2.17;;;11.40;99.90;;;;;;4949235;28;20126;-78
2022/07/21 12:10:25;;;;;;;6.28;1.98;;;11.50;99.90;;;;;;4942412;28;20106;-77
2022/07/21 12:12:58;;;;;;;4.40;1.75;;;11.60;99.90;;;;;;4947337;29;20027;-76
2022/07/21 12:15:36;;;;;;;7.05;1.83;;;11.70;99.90;;;;;;4940932;28;20130;-77
2022/07/21 12:18:19;;;;;;;7.68;2.38;;;11.70;99.90;;;;;;4950132;28;20027;-77
2022/07/21 12:20:48;;;;;;;7.25;1.60;;;11.80;99.90;;;;;;4937441;28;20782;-78
2022/07/21 12:23:28;;;;;;;10.00;1.52;;;11.90;99.90;;;;;;4950756;29;20079;-77
2022/07/21 12:25:58;;;;;;;6.28;2.03;;;11.90;99.90;;;;;;4953174;28;20114;-77
2022/07/21 12:28:48;;;;;;;7.80;1.70;;;12.00;99.90;;;;;;4953796;29;20035;-78
2022/07/21 12:31:20;;;;;;;6.45;1.73;;;12.10;99.90;;;;;;4951114;28;20110;-78
2022/07/21 12:33:53;;;;;;;6.07;1.83;;;12.10;99.90;;;;;;4954464;28;20150;-78
2022/07/21 12:36:21;;;;;;;3.75;1.40;;;12.10;99.90;;;;;;4951916;28;20035;-79
2022/07/21 12:38:50;;;;;;;5.60;1.83;;;12.10;99.90;;;;;;4936869;29;20396;-79
2022/07/21 12:41:21;;;;;;;7.47;1.08;;;12.10;99.90;;;;;;4951850;28;20105;-78
2022/07/21 12:43:57;;;;;;;2.97;0.80;;;12.10;99.90;;;;;;4952404;29;20074;-77
2022/07/21 12:46:34;;;;;;;2.50;0.57;;;12.20;99.90;;;;;;4945201;28;20027;-78
2022/07/21 12:49:09;;;;;;;4.63;1.42;;;12.20;99.90;;;;;;4942353;28;20047;-77
2022/07/21 12:51:37;;;;;;;3.35;0.70;;;12.30;99.90;;;;;;4950631;28;20043;-75
2022/07/21 12:54:05;;;;;;;8.25;0.95;;;12.30;99.90;;;;;;4941085;28;20031;-76
2022/07/21 12:56:34;;;;;;;5.38;0.60;;;12.40;99.90;;;;;;4944052;28;20487;-77
2022/07/21 12:59:03;;;;;;;5.15;0.77;;;12.30;99.90;;;;;;4936047;29;20031;-77
2022/07/21 13:01:32;;;;;;;5.63;0.60;;;12.30;99.90;;;;;;4945852;28;20038;-79
2022/07/21 13:04:01;;;;;;;5.13;1.00;;;12.20;99.90;;;;;;4953272;29;20074;-79